sensor_id;sensor_type;location;lat;lon;timestamp;P1;durP1;ratioP1;P2;durP2;ratioP2
4754;SDS011;2391;47.212;7.542;2022-10-03T08:52:52;3.80;;;0.80;;
4754;SDS011;2391;47.212;7.542;2022-10-03T09:04:01;0.73;;;0.63;;
4754;SDS011;2391;47.212;7.542;2022-10-03T10:03:39;0.80;;;0.80;;
4754;SDS011;2391;47.212;7.542;2022-10-03T10:53:54;0.67;;;0.67;;
4754;SDS011;2391;47.212;7.542;2022-10-03T10:56:49;1.17;;;0.93;;
4754;SDS011;2391;47.212;7.542;2022-10-03T11:41:20;1.00;;;0.60;;
4754;SDS011;2391;47.212;7.542;2022-10-03T11:57:41;0.60;;;0.50;;
4754;SDS011;2391;47.212;7.542;2022-10-03T12:03:36;0.50;;;0.50;;
4754;SDS011;2391;47.212;7.542;2022-10-03T12:06:16;0.40;;;0.40;;
4754;SDS011;2391;47.212;7.542;2022-10-03T12:11:42;0.50;;;0.50;;
4754;SDS011;2391;47.212;7.542;2022-10-03T12:22:54;0.40;;;0.40;;
4754;SDS011;2391;47.212;7.542;2022-10-03T12:25:27;0.70;;;0.70;;
4754;SDS011;2391;47.212;7.542;2022-10-03T12:30:47;1.13;;;0.60;;
4754;SDS011;2391;47.212;7.542;2022-10-03T12:36:11;1.20;;;0.67;;
4754;SDS011;2391;47.212;7.542;2022-10-03T12:38:44;0.87;;;0.60;;
4754;SDS011;2391;47.212;7.542;2022-10-03T12:41:23;0.60;;;0.60;;
4754;SDS011;2391;47.212;7.542;2022-10-03T12:44:06;0.90;;;0.60;;
4754;SDS011;2391;47.212;7.542;2022-10-03T12:52:13;1.70;;;0.50;;
4754;SDS011;2391;47.212;7.542;2022-10-03T13:00:16;1.53;;;0.70;;
4754;SDS011;2391;47.212;7.542;2022-10-03T13:19:17;5.23;;;0.80;;
4754;SDS011;2391;47.212;7.542;2022-10-03T13:22:02;1.90;;;0.70;;
4754;SDS011;2391;47.212;7.542;2022-10-03T13:24:35;0.90;;;0.80;;
4754;SDS011;2391;47.212;7.542;2022-10-03T13:27:17;1.57;;;0.63;;
4754;SDS011;2391;47.212;7.542;2022-10-03T13:29:45;0.60;;;0.60;;
4754;SDS011;2391;47.212;7.542;2022-10-03T13:37:58;0.80;;;0.60;;
4754;SDS011;2391;47.212;7.542;2022-10-03T13:40:39;1.00;;;0.67;;
4754;SDS011;2391;47.212;7.542;2022-10-03T13:43:13;1.30;;;0.50;;
4754;SDS011;2391;47.212;7.542;2022-10-03T13:45:44;0.83;;;0.60;;
4754;SDS011;2391;47.212;7.542;2022-10-03T13:48:16;3.80;;;0.60;;
4754;SDS011;2391;47.212;7.542;2022-10-03T13:56:05;0.60;;;0.50;;
4754;SDS011;2391;47.212;7.542;2022-10-03T13:58:43;0.93;;;0.60;;
4754;SDS011;2391;47.212;7.542;2022-10-03T14:06:54;0.57;;;0.50;;
4754;SDS011;2391;47.212;7.542;2022-10-03T14:09:40;0.50;;;0.50;;
4754;SDS011;2391;47.212;7.542;2022-10-03T14:12:32;0.50;;;0.50;;
4754;SDS011;2391;47.212;7.542;2022-10-03T14:17:53;1.23;;;0.70;;
4754;SDS011;2391;47.212;7.542;2022-10-03T14:26:10;2.40;;;0.70;;
4754;SDS011;2391;47.212;7.542;2022-10-03T14:28:44;1.63;;;0.77;;
4754;SDS011;2391;47.212;7.542;2022-10-03T14:37:17;0.87;;;0.57;;
4754;SDS011;2391;47.212;7.542;2022-10-03T14:42:42;2.00;;;0.90;;
4754;SDS011;2391;47.212;7.542;2022-10-03T14:45:10;0.63;;;0.57;;
4754;SDS011;2391;47.212;7.542;2022-10-03T14:47:39;0.97;;;0.70;;
4754;SDS011;2391;47.212;7.542;2022-10-03T14:50:13;0.83;;;0.70;;
4754;SDS011;2391;47.212;7.542;2022-10-03T14:55:13;1.37;;;1.27;;
4754;SDS011;2391;47.212;7.542;2022-10-03T14:57:58;2.83;;;0.80;;
4754;SDS011;2391;47.212;7.542;2022-10-03T15:08:30;1.60;;;0.87;;
4754;SDS011;2391;47.212;7.542;2022-10-03T15:11:05;1.93;;;0.77;;
4754;SDS011;2391;47.212;7.542;2022-10-03T15:13:34;1.10;;;0.80;;
4754;SDS011;2391;47.212;7.542;2022-10-03T15:16:02;2.10;;;0.70;;
4754;SDS011;2391;47.212;7.542;2022-10-03T15:18:29;1.10;;;0.87;;
4754;SDS011;2391;47.212;7.542;2022-10-03T15:20:55;0.70;;;0.70;;
4754;SDS011;2391;47.212;7.542;2022-10-03T15:23:25;1.67;;;0.60;;
4754;SDS011;2391;47.212;7.542;2022-10-03T15:25:54;1.43;;;0.70;;
4754;SDS011;2391;47.212;7.542;2022-10-03T15:28:29;2.07;;;0.70;;
4754;SDS011;2391;47.212;7.542;2022-10-03T15:31:05;0.87;;;0.57;;
4754;SDS011;2391;47.212;7.542;2022-10-03T15:36:51;1.13;;;0.70;;
4754;SDS011;2391;47.212;7.542;2022-10-03T15:39:30;0.70;;;0.60;;
4754;SDS011;2391;47.212;7.542;2022-10-03T15:44:49;1.90;;;0.60;;
4754;SDS011;2391;47.212;7.542;2022-10-03T15:47:18;2.20;;;0.83;;
4754;SDS011;2391;47.212;7.542;2022-10-03T15:52:32;1.93;;;0.73;;
4754;SDS011;2391;47.212;7.542;2022-10-03T15:54:55;0.70;;;0.70;;
4754;SDS011;2391;47.212;7.542;2022-10-03T15:57:28;0.67;;;0.67;;
4754;SDS011;2391;47.212;7.542;2022-10-03T15:59:53;3.90;;;0.90;;
4754;SDS011;2391;47.212;7.542;2022-10-03T16:02:24;0.90;;;0.80;;
4754;SDS011;2391;47.212;7.542;2022-10-03T16:04:53;1.37;;;0.70;;
4754;SDS011;2391;47.212;7.542;2022-10-03T16:07:41;3.23;;;0.70;;
4754;SDS011;2391;47.212;7.542;2022-10-03T16:10:20;1.07;;;0.70;;
4754;SDS011;2391;47.212;7.542;2022-10-03T16:15:20;1.33;;;1.23;;
4754;SDS011;2391;47.212;7.542;2022-10-03T16:17:57;6.67;;;2.40;;
4754;SDS011;2391;47.212;7.542;2022-10-03T16:20:38;9.77;;;4.60;;
4754;SDS011;2391;47.212;7.542;2022-10-03T16:23:19;7.00;;;4.10;;
4754;SDS011;2391;47.212;7.542;2022-10-03T16:28:19;18.47;;;10.30;;
4754;SDS011;2391;47.212;7.542;2022-10-03T16:30:57;6.63;;;3.37;;
4754;SDS011;2391;47.212;7.542;2022-10-03T16:36:03;6.07;;;4.10;;
4754;SDS011;2391;47.212;7.542;2022-10-03T16:38:35;6.77;;;4.43;;
4754;SDS011;2391;47.212;7.542;2022-10-03T16:41:28;6.80;;;3.70;;
4754;SDS011;2391;47.212;7.542;2022-10-03T16:46:30;1.30;;;1.20;;
4754;SDS011;2391;47.212;7.542;2022-10-03T16:48:57;1.93;;;1.10;;
4754;SDS011;2391;47.212;7.542;2022-10-03T16:51:45;0.83;;;0.67;;
4754;SDS011;2391;47.212;7.542;2022-10-03T16:54:16;5.20;;;1.10;;
4754;SDS011;2391;47.212;7.542;2022-10-03T16:56:43;1.60;;;0.73;;
4754;SDS011;2391;47.212;7.542;2022-10-03T16:59:18;2.60;;;0.90;;
4754;SDS011;2391;47.212;7.542;2022-10-03T17:06:58;0.70;;;0.70;;
4754;SDS011;2391;47.212;7.542;2022-10-03T17:12:14;0.80;;;0.80;;
4754;SDS011;2391;47.212;7.542;2022-10-03T17:14:42;1.07;;;0.83;;
4754;SDS011;2391;47.212;7.542;2022-10-03T17:20:00;2.40;;;0.80;;
4754;SDS011;2391;47.212;7.542;2022-10-03T17:22:39;2.20;;;1.10;;
4754;SDS011;2391;47.212;7.542;2022-10-03T17:25:06;1.03;;;1.00;;
4754;SDS011;2391;47.212;7.542;2022-10-03T17:27:48;3.17;;;1.23;;
4754;SDS011;2391;47.212;7.542;2022-10-03T17:32:50;2.73;;;1.00;;
4754;SDS011;2391;47.212;7.542;2022-10-03T17:35:23;1.20;;;1.10;;
4754;SDS011;2391;47.212;7.542;2022-10-03T17:38:11;3.47;;;2.57;;
4754;SDS011;2391;47.212;7.542;2022-10-03T17:46:01;7.37;;;3.57;;
4754;SDS011;2391;47.212;7.542;2022-10-03T17:48:33;4.80;;;2.30;;
4754;SDS011;2391;47.212;7.542;2022-10-03T17:53:58;1.80;;;1.70;;
4754;SDS011;2391;47.212;7.542;2022-10-03T17:56:26;1.80;;;1.70;;
4754;SDS011;2391;47.212;7.542;2022-10-03T17:58:58;2.00;;;1.20;;
4754;SDS011;2391;47.212;7.542;2022-10-03T18:01:35;1.00;;;1.00;;
4754;SDS011;2391;47.212;7.542;2022-10-03T18:04:05;2.47;;;1.40;;
4754;SDS011;2391;47.212;7.542;2022-10-03T18:06:41;1.43;;;1.20;;
4754;SDS011;2391;47.212;7.542;2022-10-03T18:11:42;1.40;;;1.30;;
4754;SDS011;2391;47.212;7.542;2022-10-03T18:14:14;1.40;;;1.30;;
4754;SDS011;2391;47.212;7.542;2022-10-03T18:16:46;2.80;;;1.60;;
4754;SDS011;2391;47.212;7.542;2022-10-03T18:24:37;3.17;;;1.50;;
4754;SDS011;2391;47.212;7.542;2022-10-03T18:30:05;3.87;;;2.03;;
4754;SDS011;2391;47.212;7.542;2022-10-03T18:32:40;2.20;;;1.63;;
4754;SDS011;2391;47.212;7.542;2022-10-03T18:35:12;1.57;;;1.47;;
4754;SDS011;2391;47.212;7.542;2022-10-03T18:40:14;2.90;;;1.70;;
4754;SDS011;2391;47.212;7.542;2022-10-03T18:42:45;2.03;;;1.90;;
4754;SDS011;2391;47.212;7.542;2022-10-03T18:45:22;5.57;;;2.60;;
4754;SDS011;2391;47.212;7.542;2022-10-03T18:48:05;2.83;;;1.87;;
4754;SDS011;2391;47.212;7.542;2022-10-03T18:50:51;3.53;;;3.00;;
4754;SDS011;2391;47.212;7.542;2022-10-03T18:53:34;3.60;;;2.10;;
4754;SDS011;2391;47.212;7.542;2022-10-03T18:56:23;2.20;;;2.00;;
4754;SDS011;2391;47.212;7.542;2022-10-03T18:58:41;1.97;;;1.83;;
4754;SDS011;2391;47.212;7.542;2022-10-03T19:04:06;3.17;;;2.80;;
4754;SDS011;2391;47.212;7.542;2022-10-03T19:06:34;4.43;;;2.43;;
4754;SDS011;2391;47.212;7.542;2022-10-03T19:09:02;7.17;;;2.70;;
4754;SDS011;2391;47.212;7.542;2022-10-03T19:11:46;5.83;;;3.00;;
4754;SDS011;2391;47.212;7.542;2022-10-03T19:14:30;3.20;;;2.90;;
4754;SDS011;2391;47.212;7.542;2022-10-03T19:19:51;3.50;;;2.67;;
4754;SDS011;2391;47.212;7.542;2022-10-03T19:22:29;3.17;;;2.60;;
4754;SDS011;2391;47.212;7.542;2022-10-03T19:24:52;6.30;;;2.80;;
4754;SDS011;2391;47.212;7.542;2022-10-03T19:27:19;7.53;;;3.13;;
4754;SDS011;2391;47.212;7.542;2022-10-03T19:29:54;5.80;;;2.37;;
4754;SDS011;2391;47.212;7.542;2022-10-03T19:33:22;3.40;;;2.50;;
4754;SDS011;2391;47.212;7.542;2022-10-03T19:35:13;4.00;;;2.30;;
4754;SDS011;2391;47.212;7.542;2022-10-03T19:37:48;2.17;;;2.07;;
4754;SDS011;2391;47.212;7.542;2022-10-03T19:40:22;4.80;;;2.33;;
4754;SDS011;2391;47.212;7.542;2022-10-03T19:45:56;2.43;;;2.33;;
4754;SDS011;2391;47.212;7.542;2022-10-03T19:48:43;2.50;;;2.30;;
4754;SDS011;2391;47.212;7.542;2022-10-03T19:51:20;2.03;;;1.93;;
4754;SDS011;2391;47.212;7.542;2022-10-03T19:53:49;11.77;;;2.80;;
4754;SDS011;2391;47.212;7.542;2022-10-03T19:56:16;2.40;;;1.80;;
4754;SDS011;2391;47.212;7.542;2022-10-03T19:58:59;2.50;;;2.10;;
4754;SDS011;2391;47.212;7.542;2022-10-03T20:01:16;3.73;;;2.30;;
4754;SDS011;2391;47.212;7.542;2022-10-03T20:03:48;2.13;;;2.03;;
4754;SDS011;2391;47.212;7.542;2022-10-03T20:06:29;3.70;;;2.10;;
4754;SDS011;2391;47.212;7.542;2022-10-03T20:14:35;7.40;;;1.93;;
4754;SDS011;2391;47.212;7.542;2022-10-03T20:17:13;2.30;;;2.10;;
4754;SDS011;2391;47.212;7.542;2022-10-03T20:22:35;2.63;;;2.40;;
4754;SDS011;2391;47.212;7.542;2022-10-03T20:25:02;3.20;;;2.13;;
4754;SDS011;2391;47.212;7.542;2022-10-03T20:27:44;2.43;;;2.10;;
4754;SDS011;2391;47.212;7.542;2022-10-03T20:30:30;2.70;;;1.73;;
4754;SDS011;2391;47.212;7.542;2022-10-03T20:33:13;2.80;;;2.23;;
4754;SDS011;2391;47.212;7.542;2022-10-03T20:38:25;7.53;;;2.20;;
4754;SDS011;2391;47.212;7.542;2022-10-03T20:41:02;2.60;;;2.40;;
4754;SDS011;2391;47.212;7.542;2022-10-03T20:43:42;2.83;;;2.60;;
4754;SDS011;2391;47.212;7.542;2022-10-03T20:46:15;2.37;;;2.17;;
4754;SDS011;2391;47.212;7.542;2022-10-03T20:51:43;5.17;;;2.43;;
4754;SDS011;2391;47.212;7.542;2022-10-03T20:57:01;8.73;;;2.37;;
4754;SDS011;2391;47.212;7.542;2022-10-03T20:59:43;5.30;;;1.87;;
4754;SDS011;2391;47.212;7.542;2022-10-03T21:02:08;5.23;;;2.20;;
4754;SDS011;2391;47.212;7.542;2022-10-03T21:04:49;4.27;;;2.67;;
4754;SDS011;2391;47.212;7.542;2022-10-03T21:07:22;5.80;;;1.80;;
4754;SDS011;2391;47.212;7.542;2022-10-03T21:10:08;4.10;;;1.90;;
4754;SDS011;2391;47.212;7.542;2022-10-03T21:12:52;4.37;;;2.03;;
4754;SDS011;2391;47.212;7.542;2022-10-03T21:15:15;2.33;;;2.10;;
4754;SDS011;2391;47.212;7.542;2022-10-03T21:17:59;2.37;;;2.17;;
4754;SDS011;2391;47.212;7.542;2022-10-03T21:20:49;3.93;;;2.50;;
4754;SDS011;2391;47.212;7.542;2022-10-03T21:23:00;2.90;;;2.70;;
4754;SDS011;2391;47.212;7.542;2022-10-03T21:25:34;2.57;;;2.17;;
4754;SDS011;2391;47.212;7.542;2022-10-03T21:28:12;4.40;;;2.30;;
4754;SDS011;2391;47.212;7.542;2022-10-03T21:33:19;4.23;;;2.37;;
4754;SDS011;2391;47.212;7.542;2022-10-03T21:36:11;2.60;;;2.50;;
4754;SDS011;2391;47.212;7.542;2022-10-03T21:38:39;2.20;;;2.10;;
4754;SDS011;2391;47.212;7.542;2022-10-03T21:41:31;2.43;;;2.33;;
4754;SDS011;2391;47.212;7.542;2022-10-03T21:46:35;3.60;;;1.87;;
4754;SDS011;2391;47.212;7.542;2022-10-03T21:49:31;4.23;;;2.40;;
4754;SDS011;2391;47.212;7.542;2022-10-03T22:00:17;3.40;;;1.83;;
4754;SDS011;2391;47.212;7.542;2022-10-03T22:03:04;1.87;;;1.77;;
4754;SDS011;2391;47.212;7.542;2022-10-03T22:14:06;2.60;;;2.10;;
4754;SDS011;2391;47.212;7.542;2022-10-03T22:19:24;2.00;;;1.80;;
4754;SDS011;2391;47.212;7.542;2022-10-03T22:24:37;1.80;;;1.70;;
4754;SDS011;2391;47.212;7.542;2022-10-03T22:27:09;3.17;;;1.67;;
4754;SDS011;2391;47.212;7.542;2022-10-03T22:29:59;1.90;;;1.67;;
4754;SDS011;2391;47.212;7.542;2022-10-03T22:38:08;8.43;;;1.80;;
4754;SDS011;2391;47.212;7.542;2022-10-03T22:40:32;1.57;;;1.47;;
4754;SDS011;2391;47.212;7.542;2022-10-03T22:43:07;2.30;;;1.30;;
4754;SDS011;2391;47.212;7.542;2022-10-03T22:45:35;4.10;;;2.60;;
4754;SDS011;2391;47.212;7.542;2022-10-03T22:48:08;4.60;;;1.47;;
4754;SDS011;2391;47.212;7.542;2022-10-03T22:50:35;1.30;;;1.20;;
4754;SDS011;2391;47.212;7.542;2022-10-03T22:53:08;2.40;;;1.43;;
4754;SDS011;2391;47.212;7.542;2022-10-03T22:55:41;1.63;;;1.27;;
4754;SDS011;2391;47.212;7.542;2022-10-03T22:58:09;2.63;;;1.40;;
4754;SDS011;2391;47.212;7.542;2022-10-03T23:00:40;5.80;;;1.33;;
4754;SDS011;2391;47.212;7.542;2022-10-03T23:03:11;1.87;;;1.30;;
4754;SDS011;2391;47.212;7.542;2022-10-03T23:11:40;1.50;;;1.40;;
4754;SDS011;2391;47.212;7.542;2022-10-03T23:14:17;1.87;;;1.40;;
4754;SDS011;2391;47.212;7.542;2022-10-03T23:16:53;1.57;;;1.47;;
4754;SDS011;2391;47.212;7.542;2022-10-03T23:22:20;6.13;;;1.70;;
4754;SDS011;2391;47.212;7.542;2022-10-03T23:24:49;1.30;;;1.20;;
4754;SDS011;2391;47.212;7.542;2022-10-03T23:35:24;2.13;;;1.30;;
4754;SDS011;2391;47.212;7.542;2022-10-03T23:37:59;7.93;;;1.40;;
4754;SDS011;2391;47.212;7.542;2022-10-03T23:40:26;1.77;;;1.67;;
4754;SDS011;2391;47.212;7.542;2022-10-03T23:43:04;2.40;;;1.40;;
4754;SDS011;2391;47.212;7.542;2022-10-03T23:45:32;2.80;;;1.40;;
4754;SDS011;2391;47.212;7.542;2022-10-03T23:48:08;2.10;;;2.00;;
4754;SDS011;2391;47.212;7.542;2022-10-03T23:50:40;3.20;;;2.13;;
4754;SDS011;2391;47.212;7.542;2022-10-03T23:53:24;2.70;;;1.97;;
4754;SDS011;2391;47.212;7.542;2022-10-03T23:55:58;4.40;;;2.40;;
4754;SDS011;2391;47.212;7.542;2022-10-03T23:58:30;2.37;;;2.27;;
